Time;durP1;ratioP1;P1;durP2;ratioP2;P2;SDS_P1;SDS_P2;PMS_P1;PMS_P2;Temp;Humidity;BMP_temperature;BMP_pressure;BME280_temperature;BME280_humidity;BME280_pressure;Samples;Min_cycle;Max_cycle;Signal;HPM_P1;HPM_P2
2023/09/24 00:02:10;;;;;;;8.77;1.00;;;;;;;15.35;100.00;99615.59;5059727;28;20094;-79
2023/09/24 00:04:36;;;;;;;6.00;1.38;;;;;;;15.28;100.00;99621.91;5088694;28;20035;-80
2023/09/24 00:07:02;;;;;;;4.95;1.10;;;;;;;15.21;100.00;99625.34;5055320;28;20396;-79
2023/09/24 00:09:28;;;;;;;11.25;1.90;;;;;;;15.18;100.00;99620.44;5070182;28;20039;-80
2023/09/24 00:11:54;;;;;;;4.35;1.08;;;;;;;15.16;100.00;99619.78;5038582;28;20476;-81
2023/09/24 00:14:20;;;;;;;4.25;0.82;;;;;;;15.13;100.00;99620.19;5042014;28;20036;-81
2023/09/24 00:16:46;;;;;;;5.97;1.75;;;;;;;15.12;100.00;99629.19;5045989;28;20035;-79
2023/09/24 00:19:12;;;;;;;5.72;1.35;;;;;;;15.09;100.00;99637.56;5070022;28;20546;-81
2023/09/24 00:21:38;;;;;;;9.70;1.40;;;;;;;15.09;100.00;99638.41;5070368;28;20095;-88
2023/09/24 00:24:05;;;;;;;10.55;1.75;;;;;;;15.08;100.00;99644.72;5044559;28;20081;-87
2023/09/24 00:26:31;;;;;;;8.80;1.10;;;;;;;15.04;100.00;99646.13;5056101;28;20043;-87
2023/09/24 00:28:57;;;;;;;7.07;1.23;;;;;;;14.97;100.00;99640.75;5085669;28;20040;-87
2023/09/24 00:31:23;;;;;;;4.38;1.02;;;;;;;14.96;100.00;99640.94;5058093;27;20030;-87
2023/09/24 00:33:52;;;;;;;8.90;1.45;;;;;;;14.94;100.00;99641.13;5055756;28;20139;-87
2023/09/24 00:36:18;;;;;;;6.03;1.35;;;;;;;14.87;100.00;99643.75;5071430;28;20443;-87
2023/09/24 00:38:43;;;;;;;11.35;1.40;;;;;;;14.85;100.00;99637.81;5055097;28;20059;-87
2023/09/24 00:41:09;;;;;;;5.45;1.10;;;;;;;14.82;100.00;99637.38;5055742;28;20031;-88
2023/09/24 00:43:36;;;;;;;9.85;1.23;;;;;;;14.81;100.00;99647.16;5058083;28;20048;-87
2023/09/24 00:46:07;;;;;;;5.25;0.85;;;;;;;14.79;100.00;99630.59;5071522;28;20028;-88
2023/09/24 00:48:33;;;;;;;12.23;1.30;;;;;;;14.77;100.00;99640.56;5053769;28;20038;-87
2023/09/24 00:51:17;;;;;;;9.98;1.38;;;;;;;14.75;100.00;99637.28;5060777;28;20046;-85
2023/09/24 00:53:44;;;;;;;9.30;1.30;;;;;;;14.67;100.00;99648.06;5073266;28;20031;-86
2023/09/24 00:56:10;;;;;;;8.60;1.58;;;;;;;14.65;100.00;99653.56;5058725;28;20039;-87
2023/09/24 00:58:38;;;;;;;18.17;1.45;;;;;;;14.63;100.00;99659.09;5052381;28;20468;-86
2023/09/24 01:01:04;;;;;;;4.00;1.00;;;;;;;14.59;100.00;99668.44;5075163;28;20027;-87
2023/09/24 01:03:31;;;;;;;6.57;1.30;;;;;;;14.61;100.00;99673.56;5074817;28;20087;-88
2023/09/24 01:05:58;;;;;;;11.30;1.50;;;;;;;14.62;100.00;99677.91;5054520;28;20476;-88
2023/09/24 01:08:25;;;;;;;3.50;1.23;;;;;;;14.60;100.00;99670.09;5070832;28;20034;-87
2023/09/24 01:10:52;;;;;;;10.50;1.58;;;;;;;14.55;100.00;99669.00;5057555;28;20479;-87
2023/09/24 01:13:23;;;;;;;14.13;1.65;;;;;;;14.52;100.00;99678.19;5073114;28;20046;-87
2023/09/24 01:15:52;;;;;;;13.00;1.92;;;;;;;14.48;100.00;99671.59;5075905;28;20040;-88
2023/09/24 01:18:19;;;;;;;4.13;1.40;;;;;;;14.46;100.00;99669.13;5072286;28;20040;-85
2023/09/24 01:20:45;;;;;;;12.00;3.03;;;;;;;14.45;100.00;99666.66;5055143;28;20036;-88
2023/09/24 01:23:14;;;;;;;14.02;1.83;;;;;;;14.44;100.00;99663.19;5054252;28;20039;-87
2023/09/24 01:25:41;;;;;;;8.98;1.38;;;;;;;14.43;100.00;99658.88;5028283;28;20044;-87
2023/09/24 01:28:07;;;;;;;11.05;1.92;;;;;;;14.43;100.00;99652.75;5068924;28;20063;-88
2023/09/24 01:30:34;;;;;;;8.35;1.70;;;;;;;14.45;100.00;99656.88;5048061;28;20043;-87
2023/09/24 01:33:00;;;;;;;9.70;2.10;;;;;;;14.42;100.00;99659.91;5071986;28;20024;-88
2023/09/24 01:35:28;;;;;;;14.48;1.92;;;;;;;14.44;100.00;99660.53;5092464;28;20028;-87
2023/09/24 01:38:06;;;;;;;13.65;2.38;;;;;;;14.45;100.00;99661.34;5074332;28;20443;-87
2023/09/24 01:40:38;;;;;;;9.93;1.73;;;;;;;14.45;100.00;99654.19;5080985;28;20042;-87
2023/09/24 01:43:07;;;;;;;13.07;1.90;;;;;;;14.45;100.00;99658.69;5056361;28;20038;-87
2023/09/24 01:45:40;;;;;;;16.60;2.58;;;;;;;14.38;100.00;99653.31;5065604;28;20040;-88
2023/09/24 01:48:09;;;;;;;14.63;2.28;;;;;;;14.42;100.00;99659.91;5058658;28;20059;-88
2023/09/24 01:50:36;;;;;;;17.27;2.60;;;;;;;14.41;100.00;99663.59;5060925;28;20028;-88
2023/09/24 01:53:04;;;;;;;15.75;2.88;;;;;;;14.39;100.00;99652.31;5074477;28;20035;-88
2023/09/24 01:55:30;;;;;;;18.15;3.13;;;;;;;14.38;100.00;99650.66;5066162;28;20079;-87
2023/09/24 01:57:59;;;;;;;16.20;2.97;;;;;;;14.36;100.00;99663.31;5060707;28;20468;-88
2023/09/24 02:00:26;;;;;;;20.67;3.58;;;;;;;14.33;100.00;99653.06;5076497;28;20032;-88
2023/09/24 02:03:17;;;;;;;28.48;3.97;;;;;;;14.32;100.00;99654.06;5062633;28;20036;-86
2023/09/24 02:05:42;;;;;;;26.15;3.92;;;;;;;14.30;100.00;99646.25;5067467;28;20150;-86
2023/09/24 02:08:09;;;;;;;22.85;3.83;;;;;;;14.34;100.00;99666.16;5060013;28;20084;-87
2023/09/24 02:10:39;;;;;;;34.05;5.07;;;;;;;14.35;100.00;99648.38;5078605;28;20047;-87
2023/09/24 02:13:05;;;;;;;31.00;5.10;;;;;;;14.30;100.00;99630.31;5062283;28;20036;-87
2023/09/24 02:15:30;;;;;;;31.73;4.70;;;;;;;14.30;100.00;99629.50;5075727;28;20043;-79
2023/09/24 02:17:56;;;;;;;27.17;4.78;;;;;;;14.24;100.00;99618.63;5104495;28;20036;-88
2023/09/24 02:20:27;;;;;;;24.95;4.13;;;;;;;14.23;100.00;99613.50;5060436;28;20047;-88
2023/09/24 02:22:57;;;;;;;26.90;4.25;;;;;;;14.24;100.00;99612.47;5099415;28;20115;-88
2023/09/24 02:25:28;;;;;;;25.05;4.53;;;;;;;14.21;100.00;99626.97;5076373;28;20075;-88
2023/09/24 02:27:55;;;;;;;32.35;4.68;;;;;;;14.17;100.00;99620.41;5056313;28;20372;-88
2023/09/24 02:30:22;;;;;;;33.50;4.70;;;;;;;14.18;100.00;99619.38;5072695;28;20453;-86
2023/09/24 02:32:50;;;;;;;28.63;4.88;;;;;;;14.16;100.00;99620.59;5056829;28;20058;-86
2023/09/24 02:35:16;;;;;;;24.65;3.97;;;;;;;14.19;100.00;99618.34;5058210;28;20553;-85
2023/09/24 02:37:45;;;;;;;34.60;5.50;;;;;;;14.21;100.00;99605.72;5089300;28;20036;-87
2023/09/24 02:40:21;;;;;;;27.75;5.03;;;;;;;14.19;100.00;99613.03;5088607;28;20062;-86
2023/09/24 02:42:47;;;;;;;;;;;;;;;14.14;100.00;99615.47;5066233;28;20063;-86
2023/09/24 02:45:15;;;;;;;31.70;5.25;;;;;;;14.13;100.00;99611.97;5065125;28;20520;-80
2023/09/24 02:47:46;;;;;;;37.40;4.63;;;;;;;14.20;100.00;99622.69;5066519;28;20028;-81
2023/09/24 02:50:15;;;;;;;36.97;5.65;;;;;;;14.14;100.00;99618.13;5070347;28;20052;-80
2023/09/24 02:52:41;;;;;;;24.10;4.50;;;;;;;14.17;100.00;99617.75;5070819;28;20116;-80
2023/09/24 02:55:13;;;;;;;34.13;5.43;;;;;;;14.18;100.00;99621.19;5070583;28;20096;-80
2023/09/24 02:57:44;;;;;;;35.97;5.13;;;;;;;14.19;100.00;99618.34;5055956;28;20035;-80
2023/09/24 03:00:19;;;;;;;30.17;5.60;;;;;;;14.18;100.00;99618.53;5106836;28;20028;-81
2023/09/24 03:02:46;;;;;;;31.75;4.53;;;;;;;14.17;100.00;99623.06;5087369;28;20058;-80
2023/09/24 03:05:24;;;;;;;28.95;4.90;;;;;;;14.19;100.00;99628.97;5057878;28;20096;-82
2023/09/24 03:07:54;;;;;;;25.27;5.05;;;;;;;14.19;100.00;99617.56;5065540;28;20068;-81
2023/09/24 03:10:21;;;;;;;36.22;5.72;;;;;;;14.17;100.00;99616.91;5077550;28;20043;-82
2023/09/24 03:12:48;;;;;;;31.92;5.05;;;;;;;14.20;100.00;99622.69;5075868;28;20768;-81
2023/09/24 03:15:14;;;;;;;29.20;6.45;;;;;;;14.21;100.00;99624.31;5066340;28;20043;-80
2023/09/24 03:17:42;;;;;;;30.42;4.78;;;;;;;14.24;100.00;99626.59;5055490;28;20028;-79
2023/09/24 03:20:15;;;;;;;34.97;6.05;;;;;;;14.25;100.00;99616.78;5059491;28;20078;-81
2023/09/24 03:22:49;;;;;;;37.35;4.55;;;;;;;14.29;100.00;99618.06;5087769;28;20039;-81
2023/09/24 03:25:17;;;;;;;30.95;5.65;;;;;;;14.31;100.00;99625.84;5055022;28;20423;-79
2023/09/24 03:27:48;;;;;;;26.88;5.57;;;;;;;14.31;100.00;99617.84;5096115;28;20024;-80
2023/09/24 03:30:17;;;;;;;26.67;4.85;;;;;;;14.30;100.00;99627.66;5068476;28;20043;-81
2023/09/24 03:32:44;;;;;;;36.17;6.20;;;;;;;14.34;100.00;99634.25;5073524;28;20092;-81
2023/09/24 03:35:10;;;;;;;35.25;5.70;;;;;;;14.36;100.00;99628.75;5088924;28;20035;-81
2023/09/24 03:37:43;;;;;;;33.88;5.97;;;;;;;14.42;100.00;99622.69;5075626;28;20046;-81
2023/09/24 03:40:16;;;;;;;36.08;5.38;;;;;;;14.45;100.00;99616.97;5073704;28;20109;-79
2023/09/24 03:42:43;;;;;;;35.78;5.18;;;;;;;14.44;100.00;99615.34;5071103;27;20031;-80
2023/09/24 03:45:11;;;;;;;31.83;5.03;;;;;;;14.47;100.00;99606.16;5088604;28;20032;-81
2023/09/24 03:47:38;;;;;;;31.73;5.00;;;;;;;14.47;100.00;99612.31;5078586;28;20118;-80
2023/09/24 03:50:13;;;;;;;32.42;5.65;;;;;;;14.49;100.00;99601.47;5070030;28;20047;-81
2023/09/24 03:52:43;;;;;;;34.15;5.18;;;;;;;14.49;100.00;99604.13;5099218;27;20032;-80
2023/09/24 03:55:08;;;;;;;33.03;4.90;;;;;;;14.44;100.00;99602.06;5095848;27;20372;-81
2023/09/24 03:57:35;;;;;;;30.35;5.82;;;;;;;14.43;100.00;99605.69;5058040;28;20046;-81
2023/09/24 04:00:01;;;;;;;28.50;5.15;;;;;;;14.40;100.00;99600.75;5085145;28;20066;-80
2023/09/24 04:02:27;;;;;;;36.50;5.18;;;;;;;14.40;100.00;99598.09;5056778;28;20128;-80
2023/09/24 04:04:53;;;;;;;28.27;5.32;;;;;;;14.41;100.00;99606.91;5102307;28;20069;-81
2023/09/24 04:07:20;;;;;;;36.63;5.28;;;;;;;14.40;100.00;99595.44;5088354;28;20027;-81
2023/09/24 04:09:47;;;;;;;32.92;5.03;;;;;;;14.41;100.00;99586.47;5067191;28;20036;-80
2023/09/24 04:12:13;;;;;;;31.67;4.53;;;;;;;14.42;100.00;99589.94;5070046;28;20040;-80
2023/09/24 04:14:39;;;;;;;24.92;4.65;;;;;;;14.41;100.00;99588.31;5080030;28;20111;-81
2023/09/24 04:17:06;;;;;;;32.83;4.78;;;;;;;14.41;100.00;99586.47;5101668;28;20024;-81
2023/09/24 04:19:33;;;;;;;33.92;5.13;;;;;;;14.44;100.00;99579.94;5083272;28;20132;-80
2023/09/24 04:21:59;;;;;;;39.30;6.57;;;;;;;14.44;100.00;99579.94;5056890;28;20066;-80
2023/09/24 04:24:25;;;;;;;29.30;5.20;;;;;;;14.46;100.00;99575.28;5085766;28;20109;-81
2023/09/24 04:26:52;;;;;;;35.40;4.93;;;;;;;14.50;100.00;99585.31;5088206;28;20035;-80
2023/09/24 04:29:18;;;;;;;36.20;5.88;;;;;;;14.54;100.00;99575.13;5085890;28;20547;-80
2023/09/24 04:31:44;;;;;;;40.13;5.32;;;;;;;14.56;100.00;99577.56;5086432;28;20439;-81
2023/09/24 04:34:12;;;;;;;36.67;5.15;;;;;;;14.58;100.00;99567.59;5071609;28;20038;-81
2023/09/24 04:36:42;;;;;;;36.33;5.85;;;;;;;14.61;100.00;99569.84;5081002;28;20032;-80
2023/09/24 04:39:11;;;;;;;42.35;5.68;;;;;;;14.60;100.00;99573.53;5070057;28;20027;-80
2023/09/24 04:41:42;;;;;;;37.78;4.97;;;;;;;14.66;100.00;99563.94;5100276;28;20085;-81
2023/09/24 04:44:09;;;;;;;26.80;5.28;;;;;;;14.63;100.00;99558.03;5072899;28;20039;-80
2023/09/24 04:46:35;;;;;;;32.00;5.18;;;;;;;14.67;100.00;99560.31;5086171;28;20036;-80
2023/09/24 04:49:05;;;;;;;35.60;5.00;;;;;;;14.68;100.00;99552.13;5064204;28;20538;-81
2023/09/24 04:51:32;;;;;;;30.10;5.22;;;;;;;14.70;100.00;99558.06;5089403;28;20616;-80
2023/09/24 04:54:01;;;;;;;30.65;5.95;;;;;;;14.69;100.00;99555.59;5071060;28;20028;-80
2023/09/24 04:56:30;;;;;;;35.30;5.07;;;;;;;14.75;100.00;99568.94;5096290;27;20040;-81
2023/09/24 04:58:56;;;;;;;31.42;5.45;;;;;;;14.70;100.00;99581.19;5103792;27;20032;-80
2023/09/24 05:01:22;;;;;;;34.47;5.18;;;;;;;14.70;100.00;99566.03;5076889;28;20097;-81
2023/09/24 05:03:50;;;;;;;29.25;5.25;;;;;;;14.74;100.00;99571.81;5071208;28;20039;-80
2023/09/24 05:06:16;;;;;;;29.55;5.13;;;;;;;14.74;100.00;99564.66;5064929;28;20059;-81
2023/09/24 05:08:43;;;;;;;37.47;5.57;;;;;;;14.75;100.00;99563.63;5081957;28;20032;-81
2023/09/24 05:11:12;;;;;;;32.63;5.10;;;;;;;14.79;100.00;99569.41;5098303;28;20031;-80
2023/09/24 05:13:38;;;;;;;31.55;4.82;;;;;;;14.77;100.00;99568.75;5093872;28;20110;-81
2023/09/24 05:16:04;;;;;;;30.83;5.22;;;;;;;14.79;100.00;99572.06;5090036;28;20099;-80
2023/09/24 05:18:32;;;;;;;30.45;4.75;;;;;;;14.84;100.00;99576.81;5069929;28;20032;-80
2023/09/24 05:20:57;;;;;;;33.47;5.35;;;;;;;14.82;100.00;99577.00;5087722;28;20080;-80
2023/09/24 05:23:23;;;;;;;28.70;4.75;;;;;;;14.86;100.00;99574.75;5071994;28;20094;-79
2023/09/24 05:25:53;;;;;;;29.33;5.47;;;;;;;14.88;100.00;99575.41;5072838;28;20071;-79
2023/09/24 05:28:19;;;;;;;34.25;6.00;;;;;;;14.84;100.00;99580.28;5098925;28;20074;-79
2023/09/24 05:30:55;;;;;;;33.90;5.60;;;;;;;14.89;100.00;99579.72;5069824;28;20063;-80
2023/09/24 05:33:21;;;;;;;28.40;4.30;;;;;;;14.87;100.00;99571.09;5075298;28;20041;-80
2023/09/24 05:35:51;;;;;;;28.92;5.18;;;;;;;14.91;100.00;99564.38;5051076;28;20035;-80
2023/09/24 05:38:17;;;;;;;27.17;5.35;;;;;;;14.88;100.00;99567.41;5050935;28;20042;-80
2023/09/24 05:40:43;;;;;;;29.35;5.45;;;;;;;14.86;100.00;99564.13;5079433;28;20035;-81
2023/09/24 05:43:09;;;;;;;29.10;4.93;;;;;;;14.84;100.00;99556.34;5070918;28;20604;-80
2023/09/24 05:45:35;;;;;;;22.70;4.38;;;;;;;14.84;100.00;99555.53;5055554;28;20039;-80
2023/09/24 05:48:01;;;;;;;33.58;4.20;;;;;;;14.82;100.00;99549.56;5056970;28;20105;-80
2023/09/24 05:50:27;;;;;;;27.10;4.25;;;;;;;14.82;100.00;99552.22;5080073;28;20032;-80
2023/09/24 05:52:52;;;;;;;25.95;5.65;;;;;;;14.81;100.00;99545.28;5067815;28;20039;-82
2023/09/24 05:55:18;;;;;;;31.30;5.13;;;;;;;14.82;100.00;99553.06;5085294;28;20472;-80
2023/09/24 05:57:44;;;;;;;28.67;5.50;;;;;;;14.84;100.00;99544.91;5082742;28;20397;-81
2023/09/24 06:00:10;;;;;;;41.72;6.00;;;;;;;14.82;100.00;99538.94;5080549;28;20024;-80
2023/09/24 06:02:39;;;;;;;26.17;4.75;;;;;;;14.79;100.00;99539.28;5045109;28;20396;-79
2023/09/24 06:05:09;;;;;;;30.90;4.97;;;;;;;14.79;100.00;99549.94;5062786;28;20036;-80
2023/09/24 06:07:35;;;;;;;25.15;4.50;;;;;;;14.78;100.00;99550.97;5079865;28;20056;-79
2023/09/24 06:10:04;;;;;;;29.35;4.63;;;;;;;14.80;100.00;99560.41;5069153;28;20032;-80
2023/09/24 06:12:31;;;;;;;30.92;4.90;;;;;;;14.82;100.00;99562.88;5068252;28;20122;-81
2023/09/24 06:14:57;;;;;;;27.60;4.35;;;;;;;14.83;100.00;99559.19;5092009;28;20032;-80
2023/09/24 06:17:23;;;;;;;33.47;5.88;;;;;;;14.83;100.00;99548.56;5085703;28;20099;-81
2023/09/24 06:19:48;;;;;;;36.10;5.15;;;;;;;14.84;100.00;99551.00;5071388;28;20088;-80
2023/09/24 06:22:14;;;;;;;27.02;5.32;;;;;;;14.85;100.00;99547.34;5111312;28;20368;-82
2023/09/24 06:24:40;;;;;;;25.50;4.63;;;;;;;14.85;100.00;99555.34;5074841;28;20109;-81
2023/09/24 06:27:05;;;;;;;31.35;4.90;;;;;;;14.87;100.00;99553.28;5074334;28;20087;-81
2023/09/24 06:29:35;;;;;;;35.75;5.10;;;;;;;14.90;100.00;99549.44;5078118;28;20035;-81
2023/09/24 06:32:01;;;;;;;33.13;5.20;;;;;;;14.87;100.00;99547.16;5077922;28;20032;-80
2023/09/24 06:34:27;;;;;;;26.95;4.97;;;;;;;14.86;100.00;99546.31;5070291;28;20043;-81
2023/09/24 06:36:53;;;;;;;31.10;5.50;;;;;;;14.87;100.00;99549.81;5086126;27;20495;-81
2023/09/24 06:39:18;;;;;;;32.80;5.00;;;;;;;14.88;100.00;99532.84;5094724;28;20483;-81
2023/09/24 06:41:44;;;;;;;24.98;4.03;;;;;;;14.87;100.00;99525.88;5109949;28;20039;-81
2023/09/24 06:44:11;;;;;;;36.53;6.07;;;;;;;14.86;100.00;99521.56;5077004;28;20068;-81
2023/09/24 06:46:36;;;;;;;29.30;5.15;;;;;;;14.86;100.00;99518.91;5057841;28;20474;-80
2023/09/24 06:49:02;;;;;;;33.47;5.07;;;;;;;14.84;100.00;99505.78;5072518;28;20024;-81
2023/09/24 06:51:28;;;;;;;40.05;6.50;;;;;;;14.79;100.00;99507.38;5074695;28;20042;-81
2023/09/24 06:53:54;;;;;;;34.50;4.18;;;;;;;14.80;100.00;99515.19;5068424;28;20066;-82
2023/09/24 06:56:19;;;;;;;28.50;4.65;;;;;;;14.78;100.00;99513.72;5089445;28;20035;-81
2023/09/24 06:58:45;;;;;;;30.45;4.72;;;;;;;14.79;100.00;99512.69;5105096;28;20028;-81
2023/09/24 07:01:11;;;;;;;27.52;5.00;;;;;;;14.76;100.00;99506.75;5073223;28;20503;-80
2023/09/24 07:03:37;;;;;;;29.73;5.65;;;;;;;14.73;100.00;99503.66;5075602;28;20036;-81
2023/09/24 07:06:04;;;;;;;27.52;5.00;;;;;;;14.70;100.00;99498.75;5087669;28;20028;-81
2023/09/24 07:08:33;;;;;;;27.10;4.15;;;;;;;14.68;100.00;99487.47;5087195;28;20066;-81
2023/09/24 07:11:23;;;;;;;29.83;5.05;;;;;;;14.63;100.00;99482.72;5098383;28;20524;-81
2023/09/24 07:13:49;;;;;;;26.83;5.05;;;;;;;14.54;100.00;99495.34;5075623;28;20130;-79
2023/09/24 07:16:14;;;;;;;30.70;4.70;;;;;;;14.52;100.00;99495.53;5087918;28;20028;-80
2023/09/24 07:18:41;;;;;;;35.72;4.68;;;;;;;14.52;100.00;99500.84;5073215;28;20377;-81
2023/09/24 07:21:07;;;;;;;22.58;4.55;;;;;;;14.52;100.00;99502.72;5075058;28;20051;-80
2023/09/24 07:23:33;;;;;;;26.38;4.88;;;;;;;14.54;100.00;99499.84;5097989;28;20395;-80
2023/09/24 07:25:59;;;;;;;28.63;5.60;;;;;;;14.55;100.00;99507.63;5089436;28;20555;-83
2023/09/24 07:28:25;;;;;;;30.77;5.18;;;;;;;14.57;100.00;99507.44;5068993;28;20028;-81
2023/09/24 07:30:52;;;;;;;23.45;4.43;;;;;;;14.58;100.00;99501.94;5088614;28;20070;-80
2023/09/24 07:33:20;;;;;;;19.13;4.07;;;;;;;14.62;100.00;99505.03;5067807;28;20043;-81
2023/09/24 07:35:46;;;;;;;27.67;3.72;;;;;;;14.64;100.00;99510.97;5061227;28;20031;-82
2023/09/24 07:38:12;;;;;;;22.70;4.68;;;;;;;14.67;100.00;99491.16;5050612;28;20028;-81
2023/09/24 07:40:39;;;;;;;22.23;3.58;;;;;;;14.68;100.00;99482.97;5078266;28;20503;-81
2023/09/24 07:43:07;;;;;;;25.88;4.10;;;;;;;14.70;100.00;99470.28;5104775;28;20038;-80
2023/09/24 07:45:33;;;;;;;25.05;4.03;;;;;;;14.70;100.00;99470.28;5074893;28;20039;-81
2023/09/24 07:48:00;;;;;;;19.88;4.05;;;;;;;14.71;100.00;99477.25;5084460;28;20059;-82
2023/09/24 07:50:26;;;;;;;19.90;3.78;;;;;;;14.72;100.00;99462.94;5065672;28;20036;-82
2023/09/24 07:52:52;;;;;;;21.52;3.30;;;;;;;14.76;100.00;99460.72;5053461;28;20479;-79
2023/09/24 07:55:17;;;;;;;16.45;3.80;;;;;;;14.73;100.00;99451.28;5084093;28;20032;-82
2023/09/24 07:57:43;;;;;;;21.33;3.05;;;;;;;14.79;100.00;99424.91;5087317;28;20044;-81
2023/09/24 08:00:09;;;;;;;19.83;2.97;;;;;;;14.82;100.00;99419.22;5085584;28;20406;-80
2023/09/24 08:02:38;;;;;;;18.02;2.90;;;;;;;14.84;100.00;99417.19;5075427;28;20087;-78
2023/09/24 08:05:04;;;;;;;24.08;2.45;;;;;;;14.86;100.00;99401.84;5080465;28;20028;-78
2023/09/24 08:07:32;;;;;;;15.52;2.05;;;;;;;14.89;100.00;99377.53;5079798;28;20032;-79
2023/09/24 08:09:59;;;;;;;13.60;2.15;;;;;;;14.92;100.00;99366.47;5062415;28;20096;-79
2023/09/24 08:12:24;;;;;;;14.35;2.33;;;;;;;14.94;100.00;99371.59;5073208;28;20036;-79
2023/09/24 08:14:50;;;;;;;13.63;2.53;;;;;;;14.99;100.00;99367.31;5086852;28;20036;-80
2023/09/24 08:17:16;;;;;;;12.63;1.52;;;;;;;15.04;100.00;99361.38;5076556;28;20028;-80
2023/09/24 08:19:42;;;;;;;11.57;1.70;;;;;;;15.11;100.00;99353.44;5043026;28;20048;-82
2023/09/24 08:22:08;;;;;;;8.55;1.52;;;;;;;15.13;100.00;99346.88;5095629;28;20077;-79
2023/09/24 08:24:34;;;;;;;6.53;1.50;;;;;;;15.21;100.00;99361.03;5082753;28;20048;-81
2023/09/24 08:27:00;;;;;;;10.05;1.10;;;;;;;15.27;100.00;99362.06;5069756;28;20441;-80
2023/09/24 08:29:26;;;;;;;3.55;0.85;;;;;;;15.34;100.00;99353.06;5054718;28;20036;-80
2023/09/24 08:31:51;;;;;;;4.15;1.13;;;;;;;15.43;100.00;99376.81;5086158;28;20671;-81
2023/09/24 08:34:17;;;;;;;5.40;1.15;;;;;;;15.47;100.00;99364.72;5101747;28;20058;-80
2023/09/24 08:36:43;;;;;;;5.80;1.27;;;;;;;15.55;100.00;99369.88;5080543;28;20032;-80
2023/09/24 08:39:08;;;;;;;6.25;0.60;;;;;;;15.57;100.00;99367.00;5085611;28;20169;-80
2023/09/24 08:41:43;;;;;;;4.88;0.73;;;;;;;15.71;100.00;99365.16;5061654;28;20036;-79
2023/09/24 08:44:14;;;;;;;5.40;0.77;;;;;;;15.73;100.00;99352.47;5066767;28;20394;-79
2023/09/24 08:46:42;;;;;;;1.80;0.50;;;;;;;15.72;100.00;99366.78;5097580;28;20232;-80
2023/09/24 08:49:08;;;;;;;3.42;0.65;;;;;;;15.82;100.00;99374.38;5079833;28;20089;-78
2023/09/24 08:51:34;;;;;;;3.25;0.40;;;;;;;15.87;100.00;99371.91;5105094;28;20023;-80
2023/09/24 08:54:00;;;;;;;5.15;0.45;;;;;;;15.89;100.00;99385.88;5069421;28;20023;-81
2023/09/24 08:56:26;;;;;;;4.25;0.75;;;;;;;15.91;100.00;99383.00;5070207;28;20096;-81
2023/09/24 08:58:53;;;;;;;3.35;0.40;;;;;;;15.94;100.00;99388.72;5066679;28;20036;-80
2023/09/24 09:01:18;;;;;;;3.30;0.50;;;;;;;15.96;100.00;99384.00;5087495;28;20098;-79
2023/09/24 09:03:44;;;;;;;2.20;0.50;;;;;;;15.99;100.00;99380.13;5095757;28;20031;-81
2023/09/24 09:06:28;;;;;;;1.33;0.43;;;;;;;16.04;100.00;99383.00;5082202;28;20028;-79
2023/09/24 09:08:54;;;;;;;1.02;0.20;;;;;;;16.05;100.00;99374.00;5084779;28;20058;-79
2023/09/24 09:11:20;;;;;;;0.93;0.30;;;;;;;16.11;100.00;99381.16;5056207;28;20088;-80
2023/09/24 09:13:48;;;;;;;1.00;0.30;;;;;;;16.21;100.00;99371.91;5080285;28;20093;-81
2023/09/24 09:16:20;;;;;;;2.42;0.20;;;;;;;16.21;100.00;99370.03;5062428;28;20269;-80
2023/09/24 09:18:59;;;;;;;1.40;0.20;;;;;;;16.27;100.00;99362.25;5070578;28;20032;-81
2023/09/24 09:21:27;;;;;;;1.67;0.20;;;;;;;16.24;100.00;99355.50;5059805;28;20125;-79
2023/09/24 09:23:53;;;;;;;0.88;0.20;;;;;;;16.28;100.00;99350.56;5054949;28;20104;-80
2023/09/24 09:26:28;;;;;;;0.98;0.40;;;;;;;16.34;100.00;99358.53;5055035;28;20036;-79
2023/09/24 09:28:53;;;;;;;2.17;0.20;;;;;;;16.34;100.00;99353.22;5079539;28;20035;-81
2023/09/24 09:31:19;;;;;;;1.02;0.10;;;;;;;16.36;100.00;99361.00;5073099;28;20076;-80
2023/09/24 09:33:45;;;;;;;0.50;0.20;;;;;;;16.40;100.00;99343.56;5059471;28;20039;-79
2023/09/24 09:36:22;;;;;;;0.70;0.10;;;;;;;16.48;100.00;99337.19;5066372;28;20522;-79
2023/09/24 09:38:50;;;;;;;0.65;0.10;;;;;;;16.52;100.00;99340.22;5068480;28;20103;-80
2023/09/24 09:41:20;;;;;;;0.17;0.10;;;;;;;16.55;100.00;99340.63;5071085;28;20146;-81
2023/09/24 09:43:47;;;;;;;1.08;0.05;;;;;;;16.54;100.00;99330.16;5079275;28;20051;-80
2023/09/24 09:46:18;;;;;;;2.30;0.00;;;;;;;16.57;100.00;99314.56;5082020;28;20028;-78
2023/09/24 09:48:51;;;;;;;1.35;0.10;;;;;;;16.59;100.00;99306.34;5083045;28;20023;-83
2023/09/24 09:51:19;;;;;;;0.35;0.10;;;;;;;16.55;100.00;99287.28;5063666;28;20551;-81
2023/09/24 09:53:46;;;;;;;0.00;0.00;;;;;;;16.54;100.00;99277.66;5051378;28;20089;-81
2023/09/24 09:56:12;;;;;;;2.28;0.52;;;;;;;16.56;100.00;99280.09;5085621;28;20077;-81
2023/09/24 09:58:38;;;;;;;1.02;0.03;;;;;;;16.56;100.00;99298.78;5074951;28;20470;-79
2023/09/24 10:01:06;;;;;;;2.75;0.10;;;;;;;16.55;100.00;99291.78;5055293;28;20793;-79
2023/09/24 10:03:42;;;;;;;0.57;0.10;;;;;;;16.57;100.00;99303.91;5068558;28;20040;-80
2023/09/24 10:06:10;;;;;;;0.05;0.05;;;;;;;16.56;100.00;99296.91;5063255;28;20031;-79
2023/09/24 10:08:45;;;;;;;0.00;0.00;;;;;;;16.57;100.00;99301.22;5076041;28;20464;-78
2023/09/24 10:11:31;;;;;;;0.00;0.00;;;;;;;16.56;100.00;99304.91;5086780;28;20062;-80
2023/09/24 10:14:05;;;;;;;0.10;0.10;;;;;;;16.57;100.00;99295.91;5057865;28;20066;-79
2023/09/24 10:16:35;;;;;;;0.20;0.10;;;;;;;16.55;100.00;99287.28;5081408;28;20036;-80
2023/09/24 10:19:10;;;;;;;0.55;0.10;;;;;;;16.57;100.00;99279.88;5090817;28;20028;-81
2023/09/24 10:21:42;;;;;;;0.05;0.05;;;;;;;16.58;100.00;99270.03;5058547;28;20044;-80
2023/09/24 10:24:14;;;;;;;0.10;0.10;;;;;;;16.58;100.00;99265.50;5089103;28;20092;-81
2023/09/24 10:27:07;;;;;;;0.13;0.00;;;;;;;16.54;100.00;99268.81;5075101;28;20043;-79
2023/09/24 10:29:46;;;;;;;0.08;0.00;;;;;;;16.59;100.00;99253.00;5089953;28;20527;-79
2023/09/24 10:32:12;;;;;;;0.13;0.13;;;;;;;16.58;100.00;99259.38;5092325;28;20031;-82
2023/09/24 10:34:53;;;;;;;0.28;0.00;;;;;;;16.65;100.00;99254.81;5096229;28;20035;-80
2023/09/24 10:37:23;;;;;;;0.00;0.00;;;;;;;16.67;100.00;99241.25;5100823;28;20038;-81
2023/09/24 10:39:58;;;;;;;0.40;0.10;;;;;;;16.73;100.00;99237.72;5085291;28;20039;-79
2023/09/24 10:42:29;;;;;;;0.00;0.00;;;;;;;16.73;100.00;99241.22;5099609;28;20137;-81
2023/09/24 10:45:07;;;;;;;0.00;0.00;;;;;;;16.74;100.00;99236.69;5073127;28;20043;-82
2023/09/24 10:47:43;;;;;;;0.45;0.05;;;;;;;16.70;100.00;99225.66;5086619;28;20059;-79
2023/09/24 10:50:13;;;;;;;0.00;0.00;;;;;;;16.77;100.00;99222.13;5066633;28;20036;-79
2023/09/24 10:52:48;;;;;;;0.65;0.00;;;;;;;16.75;100.00;99217.00;5074540;28;20063;-81
2023/09/24 10:55:19;;;;;;;0.22;0.00;;;;;;;16.79;100.00;99215.53;5071828;28;20084;-81
2023/09/24 10:57:53;;;;;;;0.75;0.00;;;;;;;16.79;100.00;99210.19;5055621;28;20044;-82
2023/09/24 11:00:20;;;;;;;0.40;0.00;;;;;;;16.82;100.00;99195.59;5065075;28;20452;-80
2023/09/24 11:03:03;;;;;;;2.20;0.00;;;;;;;16.86;100.00;99188.78;5086676;28;20081;-81
2023/09/24 11:05:33;;;;;;;0.20;0.00;;;;;;;16.91;100.00;99188.97;5069947;28;20043;-80
2023/09/24 11:07:59;;;;;;;0.30;0.03;;;;;;;16.94;100.00;99188.53;5068197;28;20123;-81
2023/09/24 11:10:26;;;;;;;0.00;0.00;;;;;;;16.96;100.00;99177.63;5073779;28;20119;-79
2023/09/24 11:12:53;;;;;;;0.15;0.08;;;;;;;16.97;100.00;99165.91;5089626;28;20042;-79
2023/09/24 11:15:21;;;;;;;0.50;0.00;;;;;;;16.96;100.00;99162.41;5073565;28;20403;-82
2023/09/24 11:17:47;;;;;;;0.00;0.00;;;;;;;17.02;100.00;99159.91;5080696;28;20043;-81
2023/09/24 11:20:17;;;;;;;0.47;0.00;;;;;;;17.04;100.00;99157.84;5072173;28;20031;-82
2023/09/24 11:23:09;;;;;;;0.00;0.00;;;;;;;17.16;100.00;99147.28;5075735;28;20070;-83
2023/09/24 11:25:36;;;;;;;1.45;0.00;;;;;;;17.17;100.00;99147.06;5087946;28;20047;-79